Time;durP1;ratioP1;P1;durP2;ratioP2;P2;SDS_P1;SDS_P2;PMS_P1;PMS_P2;Temp;Humidity;BMP_temperature;BMP_pressure;BME280_temperature;BME280_humidity;BME280_pressure;Samples;Min_cycle;Max_cycle;Signal;HPM_P1;HPM_P2
2021/04/06 00:00:08;;;;;;;0.60;0.20;;;1.50;99.90;;;;;;5094088;28;20519;-59
2021/04/06 00:02:36;;;;;;;0.50;0.20;;;1.50;99.90;;;;;;5095296;28;20433;-59
2021/04/06 00:05:08;;;;;;;1.20;0.20;;;1.50;99.90;;;;;;5094014;28;20444;-59
2021/04/06 00:07:35;;;;;;;0.50;0.20;;;1.70;99.90;;;;;;5094829;28;20465;-59
2021/04/06 00:10:08;;;;;;;1.08;0.30;;;1.90;99.90;;;;;;5095496;28;20418;-59
2021/04/06 00:12:36;;;;;;;0.50;0.30;;;2.10;99.90;;;;;;5095120;28;20737;-59
2021/04/06 00:15:09;;;;;;;1.60;0.20;;;1.70;99.90;;;;;;5095049;28;20429;-59
2021/04/06 00:17:36;;;;;;;1.80;0.30;;;1.60;99.90;;;;;;5094892;28;20850;-59
2021/04/06 00:20:06;;;;;;;0.65;0.20;;;1.40;99.90;;;;;;5095389;28;20418;-59
2021/04/06 00:22:34;;;;;;;1.50;0.20;;;1.30;99.90;;;;;;5095121;28;20503;-59
2021/04/06 00:25:02;;;;;;;0.50;0.20;;;1.20;99.90;;;;;;5093733;28;20422;-59
2021/04/06 00:27:31;;;;;;;1.60;0.20;;;1.20;99.90;;;;;;5093146;28;20434;-59
2021/04/06 00:30:03;;;;;;;0.50;0.30;;;1.20;99.90;;;;;;5094534;28;20766;-59
2021/04/06 00:32:30;;;;;;;1.40;0.20;;;1.00;99.90;;;;;;5095056;28;20848;-58
2021/04/06 00:35:00;;;;;;;0.52;0.28;;;0.80;99.90;;;;;;5094832;28;20781;-59
2021/04/06 00:37:28;;;;;;;0.70;0.30;;;0.60;99.90;;;;;;5094491;28;20453;-58
2021/04/06 00:40:01;;;;;;;0.93;0.20;;;0.60;99.90;;;;;;5094907;28;20467;-58
2021/04/06 00:42:29;;;;;;;0.90;0.20;;;0.50;99.90;;;;;;5094993;28;20426;-58
2021/04/06 00:44:58;;;;;;;0.93;0.30;;;0.40;99.90;;;;;;5094336;28;20417;-59
2021/04/06 00:47:26;;;;;;;0.50;0.30;;;0.30;99.90;;;;;;5091706;28;20452;-58
2021/04/06 00:49:55;;;;;;;0.60;0.30;;;0.30;99.90;;;;;;5091866;28;20896;-58
2021/04/06 00:52:22;;;;;;;0.50;0.30;;;0.20;99.90;;;;;;5091831;28;20425;-58
2021/04/06 00:54:53;;;;;;;1.60;0.30;;;0.10;99.90;;;;;;5091565;28;20506;-58
2021/04/06 00:57:25;;;;;;;2.40;0.30;;;0.10;99.90;;;;;;5091348;28;20621;-57
2021/04/06 01:00:16;;;;;;;3.00;0.30;;;0.00;99.90;;;;;;5092918;28;20781;-61
2021/04/06 01:02:58;;;;;;;1.30;0.30;;;-0.10;99.90;;;;;;5095058;28;20461;-58
2021/04/06 01:05:26;;;;;;;0.93;0.33;;;-0.10;99.90;;;;;;5094574;28;20417;-58
2021/04/06 01:07:55;;;;;;;0.52;0.20;;;-0.10;99.90;;;;;;5096121;28;20516;-58
2021/04/06 01:10:23;;;;;;;0.82;0.30;;;0.00;99.90;;;;;;5098394;28;20768;-58
2021/04/06 01:12:50;;;;;;;1.00;0.30;;;0.20;99.90;;;;;;5098189;28;20519;-58
2021/04/06 01:15:18;;;;;;;0.50;0.30;;;0.20;99.90;;;;;;5098548;28;20449;-57
2021/04/06 01:17:45;;;;;;;0.75;0.40;;;0.30;99.90;;;;;;5098972;28;20522;-58
2021/04/06 01:20:16;;;;;;;0.90;0.40;;;0.30;99.90;;;;;;5098564;28;20418;-58
2021/04/06 01:22:46;;;;;;;0.80;0.40;;;0.30;99.90;;;;;;5098561;28;20422;-59
2021/04/06 01:25:21;;;;;;;0.60;0.30;;;0.20;99.90;;;;;;5098155;28;20457;-59
2021/04/06 01:27:48;;;;;;;0.80;0.30;;;0.10;99.90;;;;;;5098150;28;20468;-58
2021/04/06 01:30:21;;;;;;;1.08;0.30;;;0.10;99.90;;;;;;5097642;28;20421;-58
2021/04/06 01:32:48;;;;;;;0.80;0.30;;;0.20;99.90;;;;;;5098220;28;20432;-58
2021/04/06 01:35:15;;;;;;;0.60;0.40;;;0.10;99.90;;;;;;5098143;28;20449;-58
2021/04/06 01:37:41;;;;;;;2.40;0.30;;;0.10;99.90;;;;;;5098339;28;20512;-58
2021/04/06 01:40:10;;;;;;;1.10;0.40;;;0.10;99.90;;;;;;5097620;28;20425;-58
2021/04/06 01:42:39;;;;;;;0.60;0.30;;;0.10;99.90;;;;;;5097908;28;20441;-58
2021/04/06 01:45:09;;;;;;;0.85;0.30;;;0.10;99.90;;;;;;5097649;28;20860;-58
2021/04/06 01:47:37;;;;;;;0.80;0.40;;;0.10;99.90;;;;;;5098045;28;20447;-58
2021/04/06 01:50:05;;;;;;;1.15;0.40;;;0.00;99.90;;;;;;5097764;28;20410;-58
2021/04/06 01:52:33;;;;;;;1.10;0.30;;;0.00;99.90;;;;;;5097869;28;20453;-58
2021/04/06 01:55:04;;;;;;;1.35;0.30;;;-0.10;99.90;;;;;;5097852;28;20778;-58
2021/04/06 01:57:35;;;;;;;0.90;0.40;;;-0.10;99.90;;;;;;5097621;28;20422;-58
2021/04/06 02:00:15;;;;;;;1.00;0.40;;;-0.20;99.90;;;;;;5097621;28;20698;-57
2021/04/06 02:02:43;;;;;;;1.90;0.30;;;-0.10;99.90;;;;;;5098042;28;20432;-57
2021/04/06 02:05:12;;;;;;;0.60;0.30;;;-0.10;99.90;;;;;;5097686;28;20418;-58
2021/04/06 02:07:41;;;;;;;0.70;0.30;;;-0.10;99.90;;;;;;5097546;28;20426;-56
2021/04/06 02:10:09;;;;;;;0.90;0.30;;;-0.20;99.90;;;;;;5097427;28;20410;-57
2021/04/06 02:12:38;;;;;;;0.82;0.40;;;-0.20;99.90;;;;;;5097038;28;20453;-56
2021/04/06 02:15:09;;;;;;;0.80;0.40;;;-0.30;99.90;;;;;;5096401;28;20732;-57
2021/04/06 02:17:46;;;;;;;0.60;0.30;;;-0.30;99.90;;;;;;5097226;28;20892;-58
2021/04/06 02:20:21;;;;;;;0.65;0.40;;;-0.30;99.90;;;;;;5096901;28;20410;-58
2021/04/06 02:23:01;;;;;;;0.70;0.30;;;-0.30;99.90;;;;;;5097091;28;20517;-58
2021/04/06 02:25:28;;;;;;;0.80;0.40;;;-0.30;99.90;;;;;;5097124;28;20413;-58
2021/04/06 02:27:55;;;;;;;0.50;0.30;;;-0.30;99.90;;;;;;5097118;28;20449;-57
2021/04/06 02:30:30;;;;;;;1.25;0.40;;;-0.30;99.90;;;;;;5096898;28;20833;-58
2021/04/06 02:32:57;;;;;;;0.60;0.40;;;-0.30;99.90;;;;;;5096972;28;20437;-58
2021/04/06 02:35:23;;;;;;;0.90;0.40;;;-0.30;99.90;;;;;;5096348;28;20830;-56
2021/04/06 02:37:50;;;;;;;0.90;0.40;;;-0.30;99.90;;;;;;5096775;28;20426;-58
2021/04/06 02:40:18;;;;;;;0.60;0.30;;;-0.30;99.90;;;;;;5096429;28;20480;-58
2021/04/06 02:42:46;;;;;;;0.77;0.30;;;-0.30;99.90;;;;;;5096877;28;20432;-59
2021/04/06 02:45:15;;;;;;;0.50;0.30;;;-0.30;99.90;;;;;;5097247;28;20425;-57
2021/04/06 02:47:45;;;;;;;0.97;0.40;;;-0.40;99.90;;;;;;5096602;28;20490;-56
2021/04/06 02:50:14;;;;;;;0.77;0.35;;;-0.40;99.90;;;;;;5096607;28;20530;-49
2021/04/06 02:52:41;;;;;;;0.65;0.30;;;-0.40;99.90;;;;;;5096797;28;20422;-53
2021/04/06 02:55:10;;;;;;;0.70;0.32;;;-0.40;99.90;;;;;;5096629;28;20466;-50
2021/04/06 02:57:41;;;;;;;1.10;0.35;;;-0.50;99.90;;;;;;5096779;28;20852;-51
2021/04/06 03:00:09;;;;;;;0.80;0.30;;;-0.40;99.90;;;;;;5096598;28;20715;-52
2021/04/06 03:02:39;;;;;;;0.70;0.40;;;-0.50;99.90;;;;;;5096753;28;20425;-51
2021/04/06 03:05:07;;;;;;;0.50;0.30;;;-0.50;99.90;;;;;;5096249;28;20446;-50
2021/04/06 03:07:45;;;;;;;0.90;0.40;;;-0.50;99.90;;;;;;5096428;28;20425;-52
2021/04/06 03:10:18;;;;;;;1.52;0.40;;;-0.50;99.90;;;;;;5096656;28;20413;-52
2021/04/06 03:12:47;;;;;;;1.58;0.30;;;-0.30;99.90;;;;;;5095966;28;20444;-54
2021/04/06 03:15:19;;;;;;;0.80;0.40;;;-0.30;99.90;;;;;;5096006;28;20565;-54
2021/04/06 03:17:48;;;;;;;1.83;0.30;;;-0.30;99.90;;;;;;5096472;28;20458;-53
2021/04/06 03:20:18;;;;;;;1.40;0.30;;;-0.30;99.90;;;;;;5095696;28;20418;-52
2021/04/06 03:22:45;;;;;;;1.20;0.30;;;-0.40;99.90;;;;;;5096612;28;20790;-52
2021/04/06 03:25:13;;;;;;;1.00;0.50;;;-0.50;99.90;;;;;;5095832;28;20903;-52
2021/04/06 03:27:43;;;;;;;1.10;0.40;;;-0.50;99.90;;;;;;5095102;28;20864;-52
2021/04/06 03:30:10;;;;;;;1.40;0.40;;;-0.50;99.90;;;;;;5094482;28;20426;-51
2021/04/06 03:32:37;;;;;;;1.00;0.40;;;-0.50;99.90;;;;;;5095700;28;20465;-51
2021/04/06 03:35:04;;;;;;;0.60;0.30;;;-0.40;99.90;;;;;;5095093;28;20989;-49
2021/04/06 03:37:32;;;;;;;0.75;0.40;;;-0.50;99.90;;;;;;5094463;28;20897;-51
2021/04/06 03:39:58;;;;;;;0.80;0.40;;;-0.30;99.90;;;;;;5094114;28;20485;-51
2021/04/06 03:42:26;;;;;;;1.20;0.40;;;-0.20;99.90;;;;;;5094710;28;20461;-52
2021/04/06 03:45:05;;;;;;;0.52;0.38;;;-0.20;99.90;;;;;;5094469;28;20453;-52
2021/04/06 03:47:53;;;;;;;2.35;0.40;;;-0.20;99.90;;;;;;5094540;28;20461;-52
2021/04/06 03:50:37;;;;;;;0.60;0.30;;;-0.20;99.90;;;;;;5094640;28;20551;-53
2021/04/06 03:53:05;;;;;;;0.70;0.30;;;-0.20;99.90;;;;;;5095693;28;20464;-51
2021/04/06 03:55:32;;;;;;;0.70;0.38;;;-0.20;99.90;;;;;;5095103;28;20454;-56
2021/04/06 03:58:09;;;;;;;0.80;0.30;;;-0.30;99.90;;;;;;5095129;28;20489;-53
2021/04/06 04:00:36;;;;;;;1.50;0.40;;;-0.40;99.90;;;;;;5095382;28;20429;-54
2021/04/06 04:03:03;;;;;;;1.70;0.40;;;-0.30;99.90;;;;;;5088319;28;20982;-55
2021/04/06 04:05:29;;;;;;;1.00;0.40;;;-0.20;99.90;;;;;;5083155;28;20508;-55
2021/04/06 04:07:56;;;;;;;1.45;0.40;;;-0.20;99.90;;;;;;5092853;28;20710;-53
2021/04/06 04:10:23;;;;;;;1.90;0.40;;;-0.20;99.90;;;;;;5094451;28;20414;-52
2021/04/06 04:12:50;;;;;;;0.65;0.40;;;-0.20;99.90;;;;;;5093314;28;20907;-52
2021/04/06 04:15:17;;;;;;;0.90;0.30;;;-0.30;99.90;;;;;;5089970;28;20461;-54
2021/04/06 04:17:47;;;;;;;1.25;0.40;;;-0.40;99.90;;;;;;5093938;28;20479;-55
2021/04/06 04:20:15;;;;;;;0.70;0.40;;;-0.20;99.90;;;;;;5092793;28;20417;-54
2021/04/06 04:22:42;;;;;;;0.70;0.40;;;-0.30;99.90;;;;;;5094020;28;20494;-51
2021/04/06 04:25:09;;;;;;;1.40;0.30;;;-0.10;99.90;;;;;;5093455;28;20422;-52
2021/04/06 04:27:38;;;;;;;1.60;0.40;;;-0.10;99.90;;;;;;5088315;28;20467;-52
2021/04/06 04:30:05;;;;;;;0.60;0.30;;;-0.10;99.90;;;;;;5082877;28;20506;-50
2021/04/06 04:32:31;;;;;;;0.80;0.40;;;0.20;99.90;;;;;;5084254;28;20470;-52
2021/04/06 04:34:58;;;;;;;1.00;0.40;;;0.20;99.90;;;;;;5091838;28;20426;-52
2021/04/06 04:37:24;;;;;;;0.80;0.50;;;0.00;99.90;;;;;;5084497;28;20457;-49
2021/04/06 04:39:51;;;;;;;2.03;0.40;;;-0.10;99.90;;;;;;5083713;28;20469;-53
2021/04/06 04:42:17;;;;;;;1.60;0.50;;;0.10;99.90;;;;;;5092209;28;20449;-51
2021/04/06 04:44:45;;;;;;;0.80;0.40;;;0.10;99.90;;;;;;5088028;28;20425;-54
2021/04/06 04:47:11;;;;;;;0.75;0.40;;;0.00;99.90;;;;;;5088612;28;21110;-54
2021/04/06 04:49:38;;;;;;;2.80;0.40;;;0.10;99.90;;;;;;5096373;28;20521;-52
2021/04/06 04:52:05;;;;;;;0.70;0.40;;;0.10;99.90;;;;;;5097734;28;20429;-54
2021/04/06 04:54:32;;;;;;;2.08;0.40;;;0.10;99.90;;;;;;5088118;28;20523;-56
2021/04/06 04:56:59;;;;;;;1.73;0.50;;;0.00;99.90;;;;;;5096560;28;20460;-54
2021/04/06 04:59:25;;;;;;;1.77;0.40;;;0.00;99.90;;;;;;5095742;28;21007;-53
2021/04/06 05:01:53;;;;;;;1.30;0.40;;;0.00;99.90;;;;;;5097141;28;20430;-53
2021/04/06 05:04:19;;;;;;;0.82;0.43;;;0.10;99.90;;;;;;5095763;28;20813;-53
2021/04/06 05:06:46;;;;;;;1.40;0.50;;;0.00;99.90;;;;;;5086167;28;20466;-50
2021/04/06 05:09:12;;;;;;;1.17;0.50;;;0.00;99.90;;;;;;5077401;28;20815;-48
2021/04/06 05:11:38;;;;;;;2.25;0.50;;;-0.10;99.90;;;;;;5095881;28;20521;-58
2021/04/06 05:14:06;;;;;;;2.97;0.50;;;0.00;99.90;;;;;;5097647;28;20453;-48
2021/04/06 05:16:33;;;;;;;1.80;0.50;;;0.00;99.90;;;;;;5097325;28;20486;-49
2021/04/06 05:19:00;;;;;;;1.00;0.50;;;0.20;99.90;;;;;;5097449;28;20786;-51
2021/04/06 05:21:27;;;;;;;1.40;0.50;;;0.40;99.90;;;;;;5096807;28;20445;-52
2021/04/06 05:23:54;;;;;;;2.30;0.60;;;0.40;99.90;;;;;;5097323;28;20425;-49
2021/04/06 05:26:20;;;;;;;1.00;0.50;;;0.50;99.90;;;;;;5088087;28;20430;-50
2021/04/06 05:28:47;;;;;;;0.80;0.50;;;0.40;99.90;;;;;;5095990;28;20472;-52
2021/04/06 05:31:13;;;;;;;1.30;0.50;;;0.30;99.90;;;;;;5097314;28;20753;-53
2021/04/06 05:33:40;;;;;;;1.50;0.60;;;0.10;99.90;;;;;;5096280;28;20504;-50
2021/04/06 05:36:08;;;;;;;1.55;0.50;;;0.10;99.90;;;;;;5093487;28;20517;-51
2021/04/06 05:38:34;;;;;;;1.20;0.50;;;0.10;99.90;;;;;;5090939;28;20860;-53
2021/04/06 05:41:00;;;;;;;1.20;0.50;;;0.20;99.90;;;;;;5091402;28;20505;-51
2021/04/06 05:43:28;;;;;;;1.48;0.40;;;0.20;99.90;;;;;;5089444;28;20722;-48
2021/04/06 05:45:55;;;;;;;2.60;0.50;;;0.30;99.90;;;;;;5095302;28;20477;-50
2021/04/06 05:48:23;;;;;;;1.50;0.50;;;0.30;99.90;;;;;;5095253;28;20519;-49
2021/04/06 05:50:50;;;;;;;0.90;0.40;;;0.40;99.90;;;;;;5087384;28;20418;-50
2021/04/06 05:53:19;;;;;;;1.50;0.43;;;0.30;99.90;;;;;;5094635;28;20491;-50
2021/04/06 05:55:46;;;;;;;3.10;0.50;;;0.20;99.90;;;;;;5095482;28;20466;-52
2021/04/06 05:58:12;;;;;;;2.83;0.60;;;0.40;99.90;;;;;;5095459;28;20422;-52
2021/04/06 06:00:39;;;;;;;1.20;0.57;;;0.50;99.90;;;;;;5091673;28;20465;-50
2021/04/06 06:03:08;;;;;;;1.70;0.60;;;0.60;99.90;;;;;;5095799;28;20512;-53
2021/04/06 06:05:35;;;;;;;0.80;0.40;;;0.70;99.90;;;;;;5095580;28;20410;-53
2021/04/06 06:08:07;;;;;;;1.50;0.50;;;0.70;99.90;;;;;;5096231;28;20421;-53
2021/04/06 06:10:36;;;;;;;2.08;0.40;;;0.70;99.90;;;;;;5096397;28;20512;-51
2021/04/06 06:13:18;;;;;;;1.50;0.47;;;0.80;99.90;;;;;;5093701;28;20437;-52
2021/04/06 06:16:06;;;;;;;2.10;0.47;;;0.90;99.90;;;;;;5094367;28;20478;-53
2021/04/06 06:18:33;;;;;;;2.50;0.60;;;0.80;99.90;;;;;;5092064;28;20422;-53
2021/04/06 06:20:59;;;;;;;1.77;0.50;;;1.10;99.90;;;;;;5093677;28;20516;-52
2021/04/06 06:23:26;;;;;;;2.40;0.60;;;1.10;99.90;;;;;;5092754;28;21111;-47
2021/04/06 06:26:16;;;;;;;1.20;0.43;;;1.00;99.90;;;;;;5093583;28;20876;-51
2021/04/06 06:28:59;;;;;;;1.10;0.40;;;1.00;99.90;;;;;;5082192;28;20434;-53
2021/04/06 06:31:34;;;;;;;1.40;0.43;;;1.30;99.90;;;;;;5080844;28;20423;-51
2021/04/06 06:34:00;;;;;;;0.80;0.40;;;1.40;99.90;;;;;;5094525;28;20449;-50
2021/04/06 06:36:26;;;;;;;0.70;0.40;;;1.40;99.90;;;;;;5095848;28;20476;-51
2021/04/06 06:39:02;;;;;;;1.30;0.50;;;1.20;99.90;;;;;;5095377;28;20508;-53
2021/04/06 06:41:30;;;;;;;1.33;0.50;;;1.00;99.90;;;;;;5082052;28;20435;-52
2021/04/06 06:43:58;;;;;;;1.10;0.50;;;1.00;99.90;;;;;;5093110;28;20457;-54
2021/04/06 06:46:28;;;;;;;1.50;0.50;;;1.10;99.90;;;;;;5094794;28;20468;-52
2021/04/06 06:48:56;;;;;;;2.83;0.50;;;1.10;99.90;;;;;;5095338;28;20433;-51
2021/04/06 06:51:28;;;;;;;2.03;0.50;;;1.20;99.90;;;;;;5093605;28;20468;-52
2021/04/06 06:53:55;;;;;;;1.83;0.40;;;1.20;99.90;;;;;;5093683;28;20437;-52
2021/04/06 06:56:34;;;;;;;1.88;0.47;;;1.30;99.90;;;;;;5094120;28;20875;-53
2021/04/06 06:59:01;;;;;;;1.08;0.50;;;1.50;99.90;;;;;;5093773;28;20420;-52
2021/04/06 07:01:29;;;;;;;1.25;0.50;;;1.60;99.90;;;;;;5094531;28;20827;-52
2021/04/06 07:04:03;;;;;;;1.10;0.30;;;1.60;99.90;;;;;;5094276;28;20428;-48
2021/04/06 07:06:30;;;;;;;1.30;0.50;;;1.60;99.90;;;;;;5093891;28;20422;-49
2021/04/06 07:08:57;;;;;;;2.97;0.50;;;1.50;99.90;;;;;;5087727;28;20933;-48
2021/04/06 07:11:24;;;;;;;1.13;0.50;;;1.60;99.90;;;;;;5084621;28;20457;-52
2021/04/06 07:13:53;;;;;;;1.70;0.57;;;1.60;99.90;;;;;;5095004;28;20500;-50
2021/04/06 07:16:21;;;;;;;0.80;0.50;;;1.70;99.90;;;;;;5085906;28;20516;-52
2021/04/06 07:18:49;;;;;;;2.20;0.50;;;1.70;99.90;;;;;;5086401;28;20423;-50
2021/04/06 07:21:18;;;;;;;1.60;0.50;;;1.70;99.90;;;;;;5075770;28;20479;-54
2021/04/06 07:23:53;;;;;;;2.20;0.40;;;1.80;99.90;;;;;;5084877;28;20427;-53
2021/04/06 07:26:21;;;;;;;1.10;0.40;;;1.80;99.90;;;;;;5088744;28;20446;-52
2021/04/06 07:28:48;;;;;;;3.30;0.40;;;1.70;99.90;;;;;;5091374;28;20430;-54
2021/04/06 07:31:17;;;;;;;0.87;0.40;;;1.70;99.90;;;;;;5086932;28;20462;-53
2021/04/06 07:33:45;;;;;;;1.90;0.50;;;1.70;99.90;;;;;;5089684;28;20450;-54
2021/04/06 07:36:15;;;;;;;2.53;0.50;;;1.70;99.90;;;;;;5078206;28;20511;-52
2021/04/06 07:38:45;;;;;;;3.47;0.50;;;1.70;99.90;;;;;;5092285;28;20449;-56
2021/04/06 07:41:14;;;;;;;1.60;0.50;;;1.80;99.90;;;;;;5090394;28;20528;-51
2021/04/06 07:43:40;;;;;;;4.40;0.50;;;2.10;99.90;;;;;;5085764;28;20504;-53
2021/04/06 07:46:07;;;;;;;1.40;0.50;;;2.30;99.90;;;;;;5084153;28;20907;-55
2021/04/06 07:48:48;;;;;;;1.70;0.30;;;2.60;99.90;;;;;;5079123;28;20542;-57
2021/04/06 07:51:25;;;;;;;0.80;0.40;;;2.80;99.90;;;;;;5085201;28;20531;-56
2021/04/06 07:54:00;;;;;;;1.73;0.50;;;2.90;99.90;;;;;;5086224;28;20671;-59
2021/04/06 07:56:51;;;;;;;1.00;0.40;;;3.20;99.90;;;;;;5089327;28;20430;-60
2021/04/06 07:59:43;;;;;;;1.38;0.40;;;3.30;99.90;;;;;;5082255;28;20729;-60
2021/04/06 08:02:44;;;;;;;0.60;0.40;;;3.80;99.90;;;;;;5081089;28;20437;-59
2021/04/06 08:05:18;;;;;;;1.20;0.40;;;3.70;99.90;;;;;;5090314;28;20773;-59
2021/04/06 08:07:45;;;;;;;3.20;0.50;;;3.70;99.90;;;;;;5088287;28;20462;-60
2021/04/06 08:10:39;;;;;;;1.90;0.50;;;3.90;99.90;;;;;;5081869;28;20435;-59
2021/04/06 08:13:06;;;;;;;3.30;0.60;;;4.20;99.90;;;;;;5092003;28;20507;-59
2021/04/06 08:15:34;;;;;;;2.00;0.47;;;4.40;99.90;;;;;;5090713;28;20417;-57
2021/04/06 08:18:02;;;;;;;1.50;0.60;;;4.50;99.90;;;;;;5088428;28;20431;-58
2021/04/06 08:20:41;;;;;;;1.30;0.40;;;4.50;99.90;;;;;;5080894;28;20891;-60
2021/04/06 08:23:12;;;;;;;2.70;0.50;;;3.90;99.90;;;;;;5092237;28;20436;-59
2021/04/06 08:25:51;;;;;;;1.80;0.60;;;3.80;99.90;;;;;;5089558;28;20479;-59
2021/04/06 08:28:42;;;;;;;0.70;0.40;;;3.60;99.90;;;;;;5084471;28;20441;-59
2021/04/06 08:31:36;;;;;;;2.00;0.50;;;3.50;99.90;;;;;;5087239;28;20450;-58
2021/04/06 08:34:28;;;;;;;1.65;0.50;;;3.40;99.90;;;;;;5087827;28;20723;-59
2021/04/06 08:37:21;;;;;;;0.77;0.45;;;3.50;99.90;;;;;;5078894;28;20678;-59
2021/04/06 08:39:47;;;;;;;2.30;0.50;;;3.80;99.90;;;;;;5061785;28;20451;-59
2021/04/06 08:42:17;;;;;;;1.10;0.40;;;4.20;99.90;;;;;;5084259;28;20440;-58
2021/04/06 08:44:45;;;;;;;2.00;0.50;;;4.30;99.90;;;;;;5089109;28;20433;-56
2021/04/06 08:47:44;;;;;;;1.80;0.50;;;4.60;99.90;;;;;;5088499;28;20993;-58
2021/04/06 08:50:16;;;;;;;1.50;0.50;;;4.80;99.90;;;;;;5084575;28;20434;-59
2021/04/06 08:52:44;;;;;;;0.60;0.40;;;4.80;99.90;;;;;;5083045;28;20855;-59
2021/04/06 08:55:12;;;;;;;2.33;0.50;;;4.70;99.90;;;;;;5085902;28;20427;-58
2021/04/06 08:57:39;;;;;;;1.10;0.40;;;4.60;99.90;;;;;;5087838;28;20749;-59
2021/04/06 09:00:12;;;;;;;0.90;0.30;;;4.70;99.90;;;;;;5090174;28;20425;-58
2021/04/06 09:02:39;;;;;;;2.10;0.40;;;4.30;99.90;;;;;;5089919;28;20777;-58
2021/04/06 09:05:07;;;;;;;0.90;0.40;;;4.80;99.90;;;;;;5086989;28;20432;-59
2021/04/06 09:07:37;;;;;;;1.20;0.50;;;4.80;99.90;;;;;;5083909;28;20756;-58
2021/04/06 09:10:08;;;;;;;2.20;0.40;;;4.90;99.90;;;;;;5087671;28;20466;-58
2021/04/06 09:12:35;;;;;;;1.42;0.40;;;5.40;99.90;;;;;;5080916;28;20855;-57
2021/04/06 09:15:04;;;;;;;1.02;0.35;;;5.70;99.90;;;;;;5087249;28;20430;-58
2021/04/06 09:17:32;;;;;;;1.20;0.40;;;5.90;99.90;;;;;;5081215;28;20460;-58
2021/04/06 09:20:00;;;;;;;2.72;0.40;;;5.90;99.90;;;;;;5089987;28;20803;-58
2021/04/06 09:22:27;;;;;;;0.80;0.30;;;5.70;99.90;;;;;;5089234;28;20837;-58
2021/04/06 09:24:54;;;;;;;1.10;0.40;;;5.70;99.90;;;;;;5086192;28;20421;-58
2021/04/06 09:27:22;;;;;;;0.60;0.30;;;6.20;99.90;;;;;;5088348;28;20443;-58
2021/04/06 09:29:49;;;;;;;1.20;0.30;;;6.50;99.90;;;;;;5090775;28;20601;-57
2021/04/06 09:32:19;;;;;;;1.27;0.40;;;6.00;99.90;;;;;;5093598;28;20496;-59
2021/04/06 09:34:47;;;;;;;4.50;0.50;;;5.50;99.90;;;;;;5092731;28;20513;-58
2021/04/06 09:37:15;;;;;;;1.10;0.40;;;5.10;99.90;;;;;;5087659;28;20449;-58
2021/04/06 09:39:44;;;;;;;1.00;0.40;;;4.50;99.90;;;;;;5075489;28;20455;-58
2021/04/06 09:42:12;;;;;;;0.87;0.40;;;4.40;99.90;;;;;;5080442;28;20462;-59
2021/04/06 09:44:42;;;;;;;1.10;0.40;;;4.60;99.90;;;;;;5092651;28;20512;-59
2021/04/06 09:47:11;;;;;;;1.60;0.50;;;4.80;99.90;;;;;;5090272;28;20516;-59
2021/04/06 09:49:39;;;;;;;1.00;0.40;;;5.40;99.90;;;;;;5089532;28;20421;-58
2021/04/06 09:52:08;;;;;;;1.10;0.40;;;5.20;99.90;;;;;;5093595;28;20466;-59
2021/04/06 09:54:42;;;;;;;0.70;0.40;;;4.80;99.90;;;;;;5093377;28;20421;-60
2021/04/06 09:57:10;;;;;;;1.30;0.30;;;4.50;99.90;;;;;;5085784;28;20435;-59
2021/04/06 09:59:44;;;;;;;0.50;0.30;;;4.80;99.90;;;;;;5083926;28;20428;-60
2021/04/06 10:02:16;;;;;;;2.30;0.40;;;5.30;99.90;;;;;;5087948;28;20422;-59
2021/04/06 10:04:46;;;;;;;0.85;0.40;;;5.70;99.90;;;;;;5089502;28;20722;-60
2021/04/06 10:07:15;;;;;;;1.80;0.40;;;5.80;99.90;;;;;;5088980;28;20513;-59
2021/04/06 10:09:45;;;;;;;1.08;0.35;;;5.50;99.90;;;;;;5083127;28;20435;-59
2021/04/06 10:12:13;;;;;;;3.03;0.60;;;5.80;99.90;;;;;;5091418;28;20445;-60
2021/04/06 10:14:41;;;;;;;1.10;0.40;;;6.00;99.90;;;;;;5084130;28;20465;-60
2021/04/06 10:17:10;;;;;;;1.10;0.30;;;6.20;99.90;;;;;;5091765;28;20456;-60
2021/04/06 10:19:39;;;;;;;1.20;0.40;;;5.60;99.90;;;;;;5092148;28;20430;-60
2021/04/06 10:22:08;;;;;;;0.75;0.30;;;5.40;99.90;;;;;;5082976;28;20462;-60
2021/04/06 10:24:40;;;;;;;1.07;0.30;;;5.60;99.90;;;;;;5088697;28;20433;-59
2021/04/06 10:27:13;;;;;;;0.70;0.30;;;6.00;99.90;;;;;;5091439;28;20445;-61
2021/04/06 10:29:40;;;;;;;0.65;0.30;;;5.60;99.90;;;;;;5093912;28;20437;-59
2021/04/06 10:32:19;;;;;;;1.00;0.30;;;5.80;99.90;;;;;;5088916;28;20430;-59
2021/04/06 10:34:59;;;;;;;0.50;0.30;;;6.10;99.90;;;;;;5085659;28;20530;-59
2021/04/06 10:37:37;;;;;;;2.30;0.40;;;6.40;99.90;;;;;;5085441;28;20496;-59
2021/04/06 10:40:21;;;;;;;1.90;0.30;;;6.00;99.90;;;;;;5082540;28;20433;-60
2021/04/06 10:42:50;;;;;;;1.40;0.40;;;5.60;99.90;;;;;;5092928;28;20843;-61
2021/04/06 10:45:19;;;;;;;1.13;0.40;;;5.80;99.90;;;;;;5078207;28;20463;-61
2021/04/06 10:47:51;;;;;;;1.20;0.40;;;5.50;99.90;;;;;;5087326;28;20430;-58
2021/04/06 10:50:18;;;;;;;0.50;0.30;;;5.70;99.90;;;;;;5088334;28;20854;-58
2021/04/06 10:52:44;;;;;;;1.58;0.40;;;5.60;99.90;;;;;;5091287;28;20422;-59
2021/04/06 10:55:12;;;;;;;0.80;0.40;;;6.00;99.90;;;;;;5090717;28;20798;-59
2021/04/06 10:57:39;;;;;;;0.50;0.30;;;6.30;99.90;;;;;;5079488;28;20879;-59
2021/04/06 11:00:21;;;;;;;0.70;0.32;;;6.50;99.90;;;;;;5091094;28;20479;-59
2021/04/06 11:02:49;;;;;;;0.70;0.30;;;6.30;99.90;;;;;;5085759;28;20447;-58
2021/04/06 11:05:30;;;;;;;0.90;0.40;;;6.20;99.90;;;;;;5083312;28;20540;-58
2021/04/06 11:07:56;;;;;;;1.30;0.40;;;6.70;99.90;;;;;;5087472;28;20471;-59
2021/04/06 11:10:26;;;;;;;2.70;0.30;;;7.00;99.90;;;;;;5092621;28;20465;-56
2021/04/06 11:12:52;;;;;;;0.50;0.30;;;6.70;99.90;;;;;;5093180;28;20461;-57
2021/04/06 11:15:19;;;;;;;1.23;0.40;;;7.10;99.90;;;;;;5088650;28;20553;-57
2021/04/06 11:17:46;;;;;;;0.80;0.40;;;7.10;99.90;;;;;;5092591;28;20845;-56
2021/04/06 11:20:15;;;;;;;0.73;0.40;;;6.50;99.90;;;;;;5092139;28;20799;-56
2021/04/06 11:22:41;;;;;;;1.10;0.40;;;6.50;99.90;;;;;;5085338;28;20494;-56
2021/04/06 11:25:09;;;;;;;0.73;0.40;;;6.00;99.90;;;;;;5094285;28;20464;-55
2021/04/06 11:27:36;;;;;;;1.70;0.40;;;5.60;99.90;;;;;;5093344;28;20460;-58
2021/04/06 11:30:04;;;;;;;1.30;0.40;;;5.60;99.90;;;;;;5092562;28;20429;-57
2021/04/06 11:32:30;;;;;;;0.60;0.32;;;6.10;99.90;;;;;;5091370;28;20421;-55
2021/04/06 11:34:57;;;;;;;0.70;0.40;;;6.50;99.90;;;;;;5088890;28;20471;-54
2021/04/06 11:37:24;;;;;;;0.80;0.40;;;7.10;99.90;;;;;;5087532;28;20478;-56
2021/04/06 11:39:51;;;;;;;0.50;0.30;;;7.20;99.90;;;;;;5091662;28;20457;-55
2021/04/06 11:42:18;;;;;;;0.53;0.30;;;6.80;99.90;;;;;;5076554;28;20451;-58
2021/04/06 11:44:45;;;;;;;0.60;0.40;;;6.40;99.90;;;;;;5092086;28;20709;-58
2021/04/06 11:47:12;;;;;;;2.70;0.40;;;6.20;99.90;;;;;;5092918;28;20433;-58
2021/04/06 11:49:39;;;;;;;1.30;0.40;;;6.40;99.90;;;;;;5091539;28;21179;-57
2021/04/06 11:52:05;;;;;;;1.15;0.47;;;6.10;99.90;;;;;;5089662;28;21014;-59
2021/04/06 11:54:33;;;;;;;1.42;0.40;;;5.80;99.90;;;;;;5090911;28;20441;-59
2021/04/06 11:56:59;;;;;;;0.73;0.30;;;5.10;99.90;;;;;;5089873;28;20510;-59
2021/04/06 11:59:26;;;;;;;1.30;0.40;;;5.00;99.90;;;;;;5074414;28;20548;-59
2021/04/06 12:01:52;;;;;;;1.20;0.40;;;4.90;99.90;;;;;;5091277;28;20465;-57
2021/04/06 12:04:18;;;;;;;1.40;0.40;;;5.00;99.90;;;;;;5090620;28;20433;-58
2021/04/06 12:06:45;;;;;;;0.52;0.30;;;5.20;99.90;;;;;;5090311;28;20486;-59
2021/04/06 12:09:12;;;;;;;0.70;0.40;;;5.20;99.90;;;;;;5092192;28;21110;-59
2021/04/06 12:11:40;;;;;;;1.10;0.40;;;5.70;99.90;;;;;;5089958;28;20433;-57
2021/04/06 12:14:07;;;;;;;1.48;0.40;;;5.70;99.90;;;;;;5093037;28;20861;-58
2021/04/06 12:16:33;;;;;;;0.70;0.32;;;6.30;99.90;;;;;;5091150;28;20483;-58
2021/04/06 12:19:00;;;;;;;1.20;0.30;;;6.70;99.90;;;;;;5086350;28;20484;-59
2021/04/06 12:21:26;;;;;;;0.90;0.45;;;6.90;99.90;;;;;;5092043;28;20514;-58
2021/04/06 12:23:53;;;;;;;0.70;0.40;;;7.40;99.90;;;;;;5083260;28;20552;-56
2021/04/06 12:26:20;;;;;;;1.30;0.30;;;7.70;99.90;;;;;;5082805;28;20428;-59
2021/04/06 12:28:49;;;;;;;0.63;0.30;;;7.50;99.90;;;;;;5084497;28;20757;-57
2021/04/06 12:31:15;;;;;;;0.80;0.40;;;7.70;99.90;;;;;;5087782;28;20422;-58
2021/04/06 12:33:43;;;;;;;1.10;0.40;;;8.20;99.90;;;;;;5085510;28;20437;-58
2021/04/06 12:36:10;;;;;;;1.40;0.40;;;7.70;99.90;;;;;;5078013;28;20884;-58
2021/04/06 12:38:37;;;;;;;1.33;0.60;;;7.20;99.90;;;;;;5082776;28;20868;-58
2021/04/06 12:41:03;;;;;;;0.90;0.50;;;7.40;99.90;;;;;;5085830;28;20418;-57
2021/04/06 12:43:29;;;;;;;1.20;0.32;;;7.70;99.90;;;;;;5086344;28;20465;-58
2021/04/06 12:45:57;;;;;;;0.52;0.30;;;8.30;99.90;;;;;;5087984;28;20449;-58
2021/04/06 12:48:23;;;;;;;1.35;0.30;;;8.90;99.90;;;;;;5087195;28;20773;-59
2021/04/06 12:50:50;;;;;;;0.80;0.30;;;8.40;99.00;;;;;;5090059;28;20513;-58
2021/04/06 12:53:16;;;;;;;0.95;0.30;;;7.80;98.30;;;;;;5083714;28;20481;-58
2021/04/06 12:55:43;;;;;;;0.60;0.30;;;7.70;99.10;;;;;;5081909;28;20895;-58
2021/04/06 12:58:10;;;;;;;0.60;0.30;;;8.10;98.20;;;;;;5092126;28;20460;-58
2021/04/06 13:00:36;;;;;;;0.60;0.30;;;8.40;97.60;;;;;;5092547;28;20456;-58
2021/04/06 13:03:04;;;;;;;0.70;0.35;;;8.00;96.20;;;;;;5085417;28;20461;-59
2021/04/06 13:05:31;;;;;;;0.70;0.30;;;7.80;97.90;;;;;;5095930;28;20673;-59
2021/04/06 13:07:57;;;;;;;0.50;0.30;;;7.80;97.30;;;;;;5094943;28;20871;-59